sensor_id;sensor_type;location;lat;lon;timestamp;P1;durP1;ratioP1;P2;durP2;ratioP2
3757;SDS011;1894;51.038;13.692;2024-01-11T00:01:08;20.53;;;11.80;;
3757;SDS011;1894;51.038;13.692;2024-01-11T00:03:37;26.80;;;11.70;;
3757;SDS011;1894;51.038;13.692;2024-01-11T00:06:04;23.70;;;12.70;;
3757;SDS011;1894;51.038;13.692;2024-01-11T00:08:31;23.10;;;10.83;;
3757;SDS011;1894;51.038;13.692;2024-01-11T00:10:59;18.07;;;10.47;;
3757;SDS011;1894;51.038;13.692;2024-01-11T00:13:26;26.23;;;11.10;;
3757;SDS011;1894;51.038;13.692;2024-01-11T00:15:53;20.47;;;11.40;;
3757;SDS011;1894;51.038;13.692;2024-01-11T00:18:20;19.13;;;10.53;;
3757;SDS011;1894;51.038;13.692;2024-01-11T00:20:48;23.77;;;11.63;;
3757;SDS011;1894;51.038;13.692;2024-01-11T00:23:15;19.20;;;11.30;;
3757;SDS011;1894;51.038;13.692;2024-01-11T00:25:42;23.63;;;10.90;;
3757;SDS011;1894;51.038;13.692;2024-01-11T00:28:10;23.80;;;11.57;;
3757;SDS011;1894;51.038;13.692;2024-01-11T00:30:37;24.43;;;12.53;;
3757;SDS011;1894;51.038;13.692;2024-01-11T00:33:04;21.83;;;11.80;;
3757;SDS011;1894;51.038;13.692;2024-01-11T00:35:33;25.37;;;11.33;;
3757;SDS011;1894;51.038;13.692;2024-01-11T00:38:03;25.60;;;13.70;;
3757;SDS011;1894;51.038;13.692;2024-01-11T00:40:31;28.50;;;15.87;;
3757;SDS011;1894;51.038;13.692;2024-01-11T00:42:58;27.23;;;14.50;;
3757;SDS011;1894;51.038;13.692;2024-01-11T00:45:25;33.73;;;14.10;;
3757;SDS011;1894;51.038;13.692;2024-01-11T00:47:52;33.37;;;15.87;;
3757;SDS011;1894;51.038;13.692;2024-01-11T00:50:20;29.17;;;14.47;;
3757;SDS011;1894;51.038;13.692;2024-01-11T00:52:47;33.27;;;13.80;;
3757;SDS011;1894;51.038;13.692;2024-01-11T00:55:14;28.57;;;13.53;;
3757;SDS011;1894;51.038;13.692;2024-01-11T00:57:42;31.60;;;15.17;;
3757;SDS011;1894;51.038;13.692;2024-01-11T01:00:10;31.70;;;13.67;;
3757;SDS011;1894;51.038;13.692;2024-01-11T01:02:41;30.17;;;14.00;;
3757;SDS011;1894;51.038;13.692;2024-01-11T01:05:08;32.17;;;13.23;;
3757;SDS011;1894;51.038;13.692;2024-01-11T01:07:36;41.97;;;16.63;;
3757;SDS011;1894;51.038;13.692;2024-01-11T01:10:04;35.47;;;14.77;;
3757;SDS011;1894;51.038;13.692;2024-01-11T01:12:31;28.87;;;12.90;;
3757;SDS011;1894;51.038;13.692;2024-01-11T01:14:59;32.00;;;14.33;;
3757;SDS011;1894;51.038;13.692;2024-01-11T01:17:26;28.93;;;14.10;;
3757;SDS011;1894;51.038;13.692;2024-01-11T01:19:53;32.90;;;12.93;;
3757;SDS011;1894;51.038;13.692;2024-01-11T01:22:21;22.90;;;11.13;;
3757;SDS011;1894;51.038;13.692;2024-01-11T01:24:48;28.80;;;13.70;;
3757;SDS011;1894;51.038;13.692;2024-01-11T01:27:16;28.90;;;13.40;;
3757;SDS011;1894;51.038;13.692;2024-01-11T01:29:43;34.80;;;15.00;;
3757;SDS011;1894;51.038;13.692;2024-01-11T01:32:11;26.40;;;12.27;;
3757;SDS011;1894;51.038;13.692;2024-01-11T01:34:38;34.97;;;14.80;;
3757;SDS011;1894;51.038;13.692;2024-01-11T01:37:05;34.07;;;15.43;;
3757;SDS011;1894;51.038;13.692;2024-01-11T01:39:33;25.40;;;12.03;;
3757;SDS011;1894;51.038;13.692;2024-01-11T01:42:05;23.87;;;12.93;;
3757;SDS011;1894;51.038;13.692;2024-01-11T01:44:33;27.50;;;13.03;;
3757;SDS011;1894;51.038;13.692;2024-01-11T01:47:01;22.97;;;12.07;;
3757;SDS011;1894;51.038;13.692;2024-01-11T01:49:31;23.37;;;11.93;;
3757;SDS011;1894;51.038;13.692;2024-01-11T01:51:58;25.10;;;12.57;;
3757;SDS011;1894;51.038;13.692;2024-01-11T01:54:26;30.77;;;12.97;;
3757;SDS011;1894;51.038;13.692;2024-01-11T01:56:53;25.80;;;12.77;;
3757;SDS011;1894;51.038;13.692;2024-01-11T01:59:21;22.93;;;12.27;;
3757;SDS011;1894;51.038;13.692;2024-01-11T02:01:50;25.47;;;12.30;;
3757;SDS011;1894;51.038;13.692;2024-01-11T02:04:19;35.90;;;15.50;;
3757;SDS011;1894;51.038;13.692;2024-01-11T02:06:46;30.07;;;13.80;;
3757;SDS011;1894;51.038;13.692;2024-01-11T02:09:14;25.37;;;13.00;;
3757;SDS011;1894;51.038;13.692;2024-01-11T02:11:42;27.77;;;14.53;;
3757;SDS011;1894;51.038;13.692;2024-01-11T02:14:11;30.17;;;12.00;;
3757;SDS011;1894;51.038;13.692;2024-01-11T02:16:39;28.57;;;13.10;;
3757;SDS011;1894;51.038;13.692;2024-01-11T02:19:06;30.93;;;14.17;;
3757;SDS011;1894;51.038;13.692;2024-01-11T02:21:38;24.50;;;13.33;;
3757;SDS011;1894;51.038;13.692;2024-01-11T02:24:09;30.80;;;14.50;;
3757;SDS011;1894;51.038;13.692;2024-01-11T02:26:37;36.63;;;18.17;;
3757;SDS011;1894;51.038;13.692;2024-01-11T02:29:29;39.83;;;17.23;;
3757;SDS011;1894;51.038;13.692;2024-01-11T02:31:58;34.03;;;17.17;;
3757;SDS011;1894;51.038;13.692;2024-01-11T02:34:27;32.90;;;16.83;;
3757;SDS011;1894;51.038;13.692;2024-01-11T02:36:55;29.40;;;14.77;;
3757;SDS011;1894;51.038;13.692;2024-01-11T02:39:22;31.10;;;15.90;;
3757;SDS011;1894;51.038;13.692;2024-01-11T02:41:52;38.80;;;17.70;;
3757;SDS011;1894;51.038;13.692;2024-01-11T02:44:22;28.70;;;15.80;;
3757;SDS011;1894;51.038;13.692;2024-01-11T02:46:49;29.50;;;16.20;;
3757;SDS011;1894;51.038;13.692;2024-01-11T02:49:17;31.37;;;15.30;;
3757;SDS011;1894;51.038;13.692;2024-01-11T02:51:44;31.57;;;15.10;;
3757;SDS011;1894;51.038;13.692;2024-01-11T02:54:11;29.50;;;15.60;;
3757;SDS011;1894;51.038;13.692;2024-01-11T02:56:39;25.07;;;15.17;;
3757;SDS011;1894;51.038;13.692;2024-01-11T02:59:06;31.53;;;15.50;;
3757;SDS011;1894;51.038;13.692;2024-01-11T03:01:33;32.93;;;15.60;;
3757;SDS011;1894;51.038;13.692;2024-01-11T03:04:01;34.47;;;16.27;;
3757;SDS011;1894;51.038;13.692;2024-01-11T03:06:28;27.30;;;14.80;;
3757;SDS011;1894;51.038;13.692;2024-01-11T03:08:55;29.63;;;15.40;;
3757;SDS011;1894;51.038;13.692;2024-01-11T03:11:23;26.47;;;14.40;;
3757;SDS011;1894;51.038;13.692;2024-01-11T03:13:50;30.60;;;14.67;;
3757;SDS011;1894;51.038;13.692;2024-01-11T03:16:17;25.10;;;13.80;;
3757;SDS011;1894;51.038;13.692;2024-01-11T03:18:44;33.47;;;13.50;;
3757;SDS011;1894;51.038;13.692;2024-01-11T03:21:12;25.03;;;12.07;;
3757;SDS011;1894;51.038;13.692;2024-01-11T03:23:39;24.63;;;13.40;;
3757;SDS011;1894;51.038;13.692;2024-01-11T03:26:15;25.50;;;11.50;;
3757;SDS011;1894;51.038;13.692;2024-01-11T03:28:44;21.20;;;10.57;;
3757;SDS011;1894;51.038;13.692;2024-01-11T03:31:11;16.67;;;8.90;;
3757;SDS011;1894;51.038;13.692;2024-01-11T03:33:39;21.87;;;11.43;;
3757;SDS011;1894;51.038;13.692;2024-01-11T03:36:07;22.83;;;11.20;;
3757;SDS011;1894;51.038;13.692;2024-01-11T03:38:38;21.90;;;10.23;;
3757;SDS011;1894;51.038;13.692;2024-01-11T03:41:08;22.67;;;10.50;;
3757;SDS011;1894;51.038;13.692;2024-01-11T03:43:36;18.80;;;11.20;;
3757;SDS011;1894;51.038;13.692;2024-01-11T03:46:04;17.23;;;8.10;;
3757;SDS011;1894;51.038;13.692;2024-01-11T03:48:31;20.70;;;10.20;;
3757;SDS011;1894;51.038;13.692;2024-01-11T03:50:58;13.37;;;7.57;;
3757;SDS011;1894;51.038;13.692;2024-01-11T03:53:26;17.90;;;8.20;;
3757;SDS011;1894;51.038;13.692;2024-01-11T03:55:53;19.17;;;8.20;;
3757;SDS011;1894;51.038;13.692;2024-01-11T03:58:21;18.00;;;9.17;;
3757;SDS011;1894;51.038;13.692;2024-01-11T04:00:49;20.53;;;8.23;;
3757;SDS011;1894;51.038;13.692;2024-01-11T04:03:16;14.83;;;8.50;;
3757;SDS011;1894;51.038;13.692;2024-01-11T04:05:44;19.37;;;8.80;;
3757;SDS011;1894;51.038;13.692;2024-01-11T04:08:11;14.40;;;7.27;;
3757;SDS011;1894;51.038;13.692;2024-01-11T04:10:39;17.07;;;8.27;;
3757;SDS011;1894;51.038;13.692;2024-01-11T04:13:06;18.17;;;8.30;;
3757;SDS011;1894;51.038;13.692;2024-01-11T04:15:34;16.00;;;8.67;;
3757;SDS011;1894;51.038;13.692;2024-01-11T04:18:01;15.83;;;7.27;;
3757;SDS011;1894;51.038;13.692;2024-01-11T04:20:29;13.70;;;7.53;;
3757;SDS011;1894;51.038;13.692;2024-01-11T04:22:56;13.93;;;8.30;;
3757;SDS011;1894;51.038;13.692;2024-01-11T04:25:23;16.57;;;8.93;;
3757;SDS011;1894;51.038;13.692;2024-01-11T04:27:50;18.43;;;8.30;;
3757;SDS011;1894;51.038;13.692;2024-01-11T04:30:18;13.67;;;8.57;;
3757;SDS011;1894;51.038;13.692;2024-01-11T04:32:45;18.50;;;8.87;;
3757;SDS011;1894;51.038;13.692;2024-01-11T04:35:12;19.90;;;10.67;;
3757;SDS011;1894;51.038;13.692;2024-01-11T04:37:40;23.23;;;11.53;;
3757;SDS011;1894;51.038;13.692;2024-01-11T04:40:07;25.93;;;12.63;;
3757;SDS011;1894;51.038;13.692;2024-01-11T04:42:35;26.10;;;13.63;;
3757;SDS011;1894;51.038;13.692;2024-01-11T04:45:02;19.43;;;12.23;;
3757;SDS011;1894;51.038;13.692;2024-01-11T04:47:31;29.63;;;13.47;;
3757;SDS011;1894;51.038;13.692;2024-01-11T04:49:59;23.57;;;11.77;;
3757;SDS011;1894;51.038;13.692;2024-01-11T04:52:26;25.00;;;13.00;;
3757;SDS011;1894;51.038;13.692;2024-01-11T04:54:53;27.30;;;14.17;;
3757;SDS011;1894;51.038;13.692;2024-01-11T04:57:21;32.57;;;15.20;;
3757;SDS011;1894;51.038;13.692;2024-01-11T04:59:48;28.50;;;14.17;;
3757;SDS011;1894;51.038;13.692;2024-01-11T05:02:15;28.13;;;13.70;;
3757;SDS011;1894;51.038;13.692;2024-01-11T05:04:42;36.33;;;17.93;;
3757;SDS011;1894;51.038;13.692;2024-01-11T05:07:10;30.90;;;17.70;;
3757;SDS011;1894;51.038;13.692;2024-01-11T05:09:37;27.30;;;15.53;;
3757;SDS011;1894;51.038;13.692;2024-01-11T05:12:04;31.57;;;17.00;;
3757;SDS011;1894;51.038;13.692;2024-01-11T05:14:32;29.87;;;15.20;;
3757;SDS011;1894;51.038;13.692;2024-01-11T05:17:00;32.87;;;15.43;;
3757;SDS011;1894;51.038;13.692;2024-01-11T05:19:27;28.97;;;15.57;;
3757;SDS011;1894;51.038;13.692;2024-01-11T05:21:55;30.73;;;14.43;;
3757;SDS011;1894;51.038;13.692;2024-01-11T05:24:23;24.90;;;13.33;;
3757;SDS011;1894;51.038;13.692;2024-01-11T05:26:50;30.83;;;11.83;;
3757;SDS011;1894;51.038;13.692;2024-01-11T05:29:17;26.23;;;14.50;;
3757;SDS011;1894;51.038;13.692;2024-01-11T05:31:45;24.73;;;13.90;;
3757;SDS011;1894;51.038;13.692;2024-01-11T05:34:12;29.00;;;16.10;;
3757;SDS011;1894;51.038;13.692;2024-01-11T05:36:39;28.67;;;15.43;;
3757;SDS011;1894;51.038;13.692;2024-01-11T05:39:07;29.73;;;15.03;;
3757;SDS011;1894;51.038;13.692;2024-01-11T05:41:34;25.90;;;14.13;;
3757;SDS011;1894;51.038;13.692;2024-01-11T05:44:01;27.43;;;14.07;;
3757;SDS011;1894;51.038;13.692;2024-01-11T05:46:28;26.07;;;13.80;;
3757;SDS011;1894;51.038;13.692;2024-01-11T05:48:59;25.30;;;12.90;;
3757;SDS011;1894;51.038;13.692;2024-01-11T05:51:26;23.40;;;13.10;;
3757;SDS011;1894;51.038;13.692;2024-01-11T05:53:53;20.60;;;10.30;;
3757;SDS011;1894;51.038;13.692;2024-01-11T05:56:21;23.30;;;11.77;;
3757;SDS011;1894;51.038;13.692;2024-01-11T05:58:49;20.23;;;11.13;;
3757;SDS011;1894;51.038;13.692;2024-01-11T06:01:16;25.60;;;11.30;;
3757;SDS011;1894;51.038;13.692;2024-01-11T06:03:44;22.30;;;11.93;;
3757;SDS011;1894;51.038;13.692;2024-01-11T06:06:12;17.53;;;10.13;;
3757;SDS011;1894;51.038;13.692;2024-01-11T06:08:39;20.50;;;10.30;;
3757;SDS011;1894;51.038;13.692;2024-01-11T06:11:09;19.90;;;11.00;;
3757;SDS011;1894;51.038;13.692;2024-01-11T06:13:36;21.37;;;10.20;;
3757;SDS011;1894;51.038;13.692;2024-01-11T06:16:06;23.77;;;11.20;;
3757;SDS011;1894;51.038;13.692;2024-01-11T06:18:38;21.30;;;10.20;;
3757;SDS011;1894;51.038;13.692;2024-01-11T06:21:05;19.60;;;12.53;;
3757;SDS011;1894;51.038;13.692;2024-01-11T06:23:32;24.53;;;13.10;;
3757;SDS011;1894;51.038;13.692;2024-01-11T06:26:00;22.47;;;13.00;;
3757;SDS011;1894;51.038;13.692;2024-01-11T06:28:27;25.23;;;13.37;;
3757;SDS011;1894;51.038;13.692;2024-01-11T06:30:54;23.40;;;12.83;;
3757;SDS011;1894;51.038;13.692;2024-01-11T06:33:22;22.53;;;12.10;;
3757;SDS011;1894;51.038;13.692;2024-01-11T06:35:49;24.90;;;11.70;;
3757;SDS011;1894;51.038;13.692;2024-01-11T06:38:17;33.00;;;16.53;;
3757;SDS011;1894;51.038;13.692;2024-01-11T06:40:44;28.50;;;14.47;;
3757;SDS011;1894;51.038;13.692;2024-01-11T06:43:11;20.07;;;11.30;;
3757;SDS011;1894;51.038;13.692;2024-01-11T06:45:38;19.10;;;10.53;;
3757;SDS011;1894;51.038;13.692;2024-01-11T06:48:06;18.77;;;9.53;;
3757;SDS011;1894;51.038;13.692;2024-01-11T06:50:33;20.13;;;9.00;;
3757;SDS011;1894;51.038;13.692;2024-01-11T06:53:01;16.53;;;7.97;;
3757;SDS011;1894;51.038;13.692;2024-01-11T06:55:30;16.43;;;9.27;;
3757;SDS011;1894;51.038;13.692;2024-01-11T06:57:57;18.90;;;10.30;;
3757;SDS011;1894;51.038;13.692;2024-01-11T07:00:25;19.10;;;9.47;;
3757;SDS011;1894;51.038;13.692;2024-01-11T07:02:53;16.87;;;9.07;;
3757;SDS011;1894;51.038;13.692;2024-01-11T07:05:20;12.50;;;7.43;;
3757;SDS011;1894;51.038;13.692;2024-01-11T07:07:48;13.20;;;8.13;;
3757;SDS011;1894;51.038;13.692;2024-01-11T07:10:15;13.20;;;7.30;;
3757;SDS011;1894;51.038;13.692;2024-01-11T07:12:42;14.30;;;9.17;;
3757;SDS011;1894;51.038;13.692;2024-01-11T07:15:12;11.63;;;6.63;;
3757;SDS011;1894;51.038;13.692;2024-01-11T07:17:39;16.20;;;8.10;;
3757;SDS011;1894;51.038;13.692;2024-01-11T07:20:06;17.30;;;7.30;;
3757;SDS011;1894;51.038;13.692;2024-01-11T07:22:35;14.00;;;8.27;;
3757;SDS011;1894;51.038;13.692;2024-01-11T07:25:07;16.07;;;7.53;;
3757;SDS011;1894;51.038;13.692;2024-01-11T07:27:34;15.73;;;9.07;;
3757;SDS011;1894;51.038;13.692;2024-01-11T07:30:02;15.30;;;8.60;;
3757;SDS011;1894;51.038;13.692;2024-01-11T07:32:32;19.03;;;8.50;;
3757;SDS011;1894;51.038;13.692;2024-01-11T07:35:00;14.13;;;7.03;;
3757;SDS011;1894;51.038;13.692;2024-01-11T07:37:27;17.13;;;8.87;;
3757;SDS011;1894;51.038;13.692;2024-01-11T07:39:54;18.60;;;8.63;;
3757;SDS011;1894;51.038;13.692;2024-01-11T07:42:21;20.07;;;8.77;;
3757;SDS011;1894;51.038;13.692;2024-01-11T07:44:49;16.87;;;9.17;;
3757;SDS011;1894;51.038;13.692;2024-01-11T07:47:16;14.07;;;8.53;;
3757;SDS011;1894;51.038;13.692;2024-01-11T07:49:44;15.67;;;7.70;;
3757;SDS011;1894;51.038;13.692;2024-01-11T07:52:11;15.00;;;7.93;;
3757;SDS011;1894;51.038;13.692;2024-01-11T07:54:38;16.83;;;8.70;;
3757;SDS011;1894;51.038;13.692;2024-01-11T07:57:06;14.10;;;9.07;;
3757;SDS011;1894;51.038;13.692;2024-01-11T07:59:33;23.83;;;11.27;;
3757;SDS011;1894;51.038;13.692;2024-01-11T08:02:02;22.23;;;11.70;;
3757;SDS011;1894;51.038;13.692;2024-01-11T08:04:30;25.97;;;12.80;;
3757;SDS011;1894;51.038;13.692;2024-01-11T08:06:58;22.97;;;12.97;;
3757;SDS011;1894;51.038;13.692;2024-01-11T08:09:28;27.33;;;13.40;;
3757;SDS011;1894;51.038;13.692;2024-01-11T08:11:56;27.87;;;15.10;;
3757;SDS011;1894;51.038;13.692;2024-01-11T08:14:23;29.27;;;15.43;;
3757;SDS011;1894;51.038;13.692;2024-01-11T08:16:51;21.40;;;13.10;;
3757;SDS011;1894;51.038;13.692;2024-01-11T08:19:20;29.73;;;13.23;;
3757;SDS011;1894;51.038;13.692;2024-01-11T08:21:47;26.53;;;13.63;;
3757;SDS011;1894;51.038;13.692;2024-01-11T08:24:14;24.00;;;13.77;;
3757;SDS011;1894;51.038;13.692;2024-01-11T08:26:42;32.67;;;13.47;;
3757;SDS011;1894;51.038;13.692;2024-01-11T08:29:10;26.13;;;13.70;;
3757;SDS011;1894;51.038;13.692;2024-01-11T08:31:37;28.87;;;14.70;;
3757;SDS011;1894;51.038;13.692;2024-01-11T08:34:05;27.97;;;15.30;;
3757;SDS011;1894;51.038;13.692;2024-01-11T08:36:33;24.67;;;14.47;;
3757;SDS011;1894;51.038;13.692;2024-01-11T08:39:04;28.20;;;14.70;;
3757;SDS011;1894;51.038;13.692;2024-01-11T08:41:32;31.67;;;15.20;;
3757;SDS011;1894;51.038;13.692;2024-01-11T08:44:02;34.73;;;17.87;;
3757;SDS011;1894;51.038;13.692;2024-01-11T08:46:29;32.60;;;15.43;;
3757;SDS011;1894;51.038;13.692;2024-01-11T08:48:57;34.40;;;14.70;;
3757;SDS011;1894;51.038;13.692;2024-01-11T08:51:25;31.27;;;16.40;;
3757;SDS011;1894;51.038;13.692;2024-01-11T08:53:52;34.03;;;16.33;;
3757;SDS011;1894;51.038;13.692;2024-01-11T08:56:20;24.47;;;14.60;;
3757;SDS011;1894;51.038;13.692;2024-01-11T08:58:48;32.30;;;16.10;;
3757;SDS011;1894;51.038;13.692;2024-01-11T09:01:15;32.43;;;16.60;;
3757;SDS011;1894;51.038;13.692;2024-01-11T09:03:44;28.20;;;15.30;;
3757;SDS011;1894;51.038;13.692;2024-01-11T09:06:11;32.20;;;16.53;;
3757;SDS011;1894;51.038;13.692;2024-01-11T09:08:39;38.70;;;17.70;;
3757;SDS011;1894;51.038;13.692;2024-01-11T09:11:08;36.10;;;17.97;;
3757;SDS011;1894;51.038;13.692;2024-01-11T09:13:37;35.73;;;18.03;;
3757;SDS011;1894;51.038;13.692;2024-01-11T09:16:04;30.50;;;16.90;;
3757;SDS011;1894;51.038;13.692;2024-01-11T09:18:33;36.53;;;19.63;;
3757;SDS011;1894;51.038;13.692;2024-01-11T09:21:00;32.40;;;17.93;;
3757;SDS011;1894;51.038;13.692;2024-01-11T09:23:28;38.63;;;21.00;;
3757;SDS011;1894;51.038;13.692;2024-01-11T09:25:55;37.40;;;19.40;;
3757;SDS011;1894;51.038;13.692;2024-01-11T09:28:22;37.33;;;19.10;;
3757;SDS011;1894;51.038;13.692;2024-01-11T09:30:49;39.07;;;21.10;;
3757;SDS011;1894;51.038;13.692;2024-01-11T09:33:16;45.23;;;22.40;;
3757;SDS011;1894;51.038;13.692;2024-01-11T09:35:44;42.77;;;23.17;;
3757;SDS011;1894;51.038;13.692;2024-01-11T09:38:11;54.77;;;26.97;;
3757;SDS011;1894;51.038;13.692;2024-01-11T09:40:38;44.43;;;23.40;;
3757;SDS011;1894;51.038;13.692;2024-01-11T09:43:06;48.27;;;25.50;;
3757;SDS011;1894;51.038;13.692;2024-01-11T09:45:36;46.67;;;25.03;;
3757;SDS011;1894;51.038;13.692;2024-01-11T09:48:05;43.20;;;24.30;;
3757;SDS011;1894;51.038;13.692;2024-01-11T09:50:33;53.70;;;25.83;;
3757;SDS011;1894;51.038;13.692;2024-01-11T09:53:01;48.27;;;27.57;;
3757;SDS011;1894;51.038;13.692;2024-01-11T09:55:32;55.10;;;29.77;;
3757;SDS011;1894;51.038;13.692;2024-01-11T09:57:59;56.10;;;30.50;;
3757;SDS011;1894;51.038;13.692;2024-01-11T10:00:27;53.90;;;30.43;;
3757;SDS011;1894;51.038;13.692;2024-01-11T10:02:55;53.00;;;30.70;;
3757;SDS011;1894;51.038;13.692;2024-01-11T10:05:22;63.90;;;33.43;;
3757;SDS011;1894;51.038;13.692;2024-01-11T10:07:59;59.57;;;30.60;;
3757;SDS011;1894;51.038;13.692;2024-01-11T10:10:32;58.27;;;32.87;;
3757;SDS011;1894;51.038;13.692;2024-01-11T10:13:00;53.63;;;30.13;;
3757;SDS011;1894;51.038;13.692;2024-01-11T10:15:29;53.73;;;30.80;;
3757;SDS011;1894;51.038;13.692;2024-01-11T10:17:59;51.70;;;30.93;;
3757;SDS011;1894;51.038;13.692;2024-01-11T10:20:27;57.93;;;31.30;;
3757;SDS011;1894;51.038;13.692;2024-01-11T10:22:57;62.43;;;31.90;;
3757;SDS011;1894;51.038;13.692;2024-01-11T10:25:24;63.70;;;33.40;;
3757;SDS011;1894;51.038;13.692;2024-01-11T10:27:52;71.67;;;34.80;;
3757;SDS011;1894;51.038;13.692;2024-01-11T10:30:22;69.30;;;35.20;;
3757;SDS011;1894;51.038;13.692;2024-01-11T10:32:51;70.80;;;34.37;;
3757;SDS011;1894;51.038;13.692;2024-01-11T10:35:19;64.50;;;33.60;;
3757;SDS011;1894;51.038;13.692;2024-01-11T10:37:47;66.70;;;34.30;;
3757;SDS011;1894;51.038;13.692;2024-01-11T10:40:21;66.90;;;37.17;;
3757;SDS011;1894;51.038;13.692;2024-01-11T10:42:52;62.83;;;34.10;;
3757;SDS011;1894;51.038;13.692;2024-01-11T10:45:20;73.23;;;38.13;;
3757;SDS011;1894;51.038;13.692;2024-01-11T10:47:53;64.03;;;36.90;;
3757;SDS011;1894;51.038;13.692;2024-01-11T10:50:30;67.00;;;37.17;;
3757;SDS011;1894;51.038;13.692;2024-01-11T10:55:37;72.17;;;38.70;;
3757;SDS011;1894;51.038;13.692;2024-01-11T10:58:06;77.57;;;38.67;;
3757;SDS011;1894;51.038;13.692;2024-01-11T11:00:37;68.43;;;36.60;;
3757;SDS011;1894;51.038;13.692;2024-01-11T11:03:05;75.27;;;40.07;;
3757;SDS011;1894;51.038;13.692;2024-01-11T11:05:36;77.97;;;38.60;;
3757;SDS011;1894;51.038;13.692;2024-01-11T11:08:14;66.80;;;38.27;;
3757;SDS011;1894;51.038;13.692;2024-01-11T11:10:42;70.27;;;39.23;;
3757;SDS011;1894;51.038;13.692;2024-01-11T11:13:12;72.80;;;37.57;;
3757;SDS011;1894;51.038;13.692;2024-01-11T11:15:42;67.50;;;38.27;;
3757;SDS011;1894;51.038;13.692;2024-01-11T11:18:13;73.80;;;39.07;;
3757;SDS011;1894;51.038;13.692;2024-01-11T11:20:41;77.50;;;38.80;;
3757;SDS011;1894;51.038;13.692;2024-01-11T11:23:10;62.30;;;35.90;;
3757;SDS011;1894;51.038;13.692;2024-01-11T11:25:41;71.27;;;38.57;;
3757;SDS011;1894;51.038;13.692;2024-01-11T11:28:10;50.80;;;28.30;;
3757;SDS011;1894;51.038;13.692;2024-01-11T11:30:40;42.10;;;24.80;;
3757;SDS011;1894;51.038;13.692;2024-01-11T11:36:09;46.40;;;23.80;;
3757;SDS011;1894;51.038;13.692;2024-01-11T11:38:40;39.73;;;22.37;;
3757;SDS011;1894;51.038;13.692;2024-01-11T11:41:08;39.03;;;23.90;;
3757;SDS011;1894;51.038;13.692;2024-01-11T11:43:36;40.63;;;24.10;;
3757;SDS011;1894;51.038;13.692;2024-01-11T11:46:06;35.40;;;23.83;;
3757;SDS011;1894;51.038;13.692;2024-01-11T11:51:21;38.23;;;24.40;;
3757;SDS011;1894;51.038;13.692;2024-01-11T11:53:54;36.90;;;23.43;;
3757;SDS011;1894;51.038;13.692;2024-01-11T11:56:22;32.60;;;19.53;;
3757;SDS011;1894;51.038;13.692;2024-01-11T11:58:50;42.43;;;22.97;;
3757;SDS011;1894;51.038;13.692;2024-01-11T12:01:22;35.50;;;21.03;;
3757;SDS011;1894;51.038;13.692;2024-01-11T12:03:52;35.57;;;22.87;;
3757;SDS011;1894;51.038;13.692;2024-01-11T12:06:20;40.23;;;22.83;;
3757;SDS011;1894;51.038;13.692;2024-01-11T12:08:51;34.40;;;19.73;;
3757;SDS011;1894;51.038;13.692;2024-01-11T12:11:24;40.17;;;23.43;;
3757;SDS011;1894;51.038;13.692;2024-01-11T12:13:52;35.03;;;19.87;;
3757;SDS011;1894;51.038;13.692;2024-01-11T12:16:22;36.87;;;20.67;;
3757;SDS011;1894;51.038;13.692;2024-01-11T12:18:50;33.13;;;19.30;;
3757;SDS011;1894;51.038;13.692;2024-01-11T12:21:18;40.27;;;23.03;;
3757;SDS011;1894;51.038;13.692;2024-01-11T12:23:46;37.70;;;19.93;;
3757;SDS011;1894;51.038;13.692;2024-01-11T12:26:15;42.27;;;22.70;;
3757;SDS011;1894;51.038;13.692;2024-01-11T12:28:49;35.30;;;21.53;;
3757;SDS011;1894;51.038;13.692;2024-01-11T12:31:18;38.90;;;21.87;;
3757;SDS011;1894;51.038;13.692;2024-01-11T12:33:46;41.80;;;22.67;;
3757;SDS011;1894;51.038;13.692;2024-01-11T12:36:15;47.30;;;24.13;;
3757;SDS011;1894;51.038;13.692;2024-01-11T12:38:46;46.50;;;23.40;;
3757;SDS011;1894;51.038;13.692;2024-01-11T12:41:19;44.03;;;23.30;;
3757;SDS011;1894;51.038;13.692;2024-01-11T12:43:48;39.67;;;23.97;;
3757;SDS011;1894;51.038;13.692;2024-01-11T12:46:15;41.87;;;24.37;;
3757;SDS011;1894;51.038;13.692;2024-01-11T12:48:43;38.53;;;22.40;;
3757;SDS011;1894;51.038;13.692;2024-01-11T12:51:11;39.70;;;23.17;;
3757;SDS011;1894;51.038;13.692;2024-01-11T12:53:51;45.13;;;22.43;;
3757;SDS011;1894;51.038;13.692;2024-01-11T12:56:20;42.20;;;23.97;;
3757;SDS011;1894;51.038;13.692;2024-01-11T12:58:51;40.63;;;23.60;;
3757;SDS011;1894;51.038;13.692;2024-01-11T13:01:18;36.33;;;21.20;;
3757;SDS011;1894;51.038;13.692;2024-01-11T13:03:46;39.53;;;23.53;;
3757;SDS011;1894;51.038;13.692;2024-01-11T13:06:14;43.80;;;24.23;;
3757;SDS011;1894;51.038;13.692;2024-01-11T13:08:45;44.90;;;24.20;;
3757;SDS011;1894;51.038;13.692;2024-01-11T13:11:12;43.17;;;24.13;;
3757;SDS011;1894;51.038;13.692;2024-01-11T13:13:43;36.10;;;21.67;;
3757;SDS011;1894;51.038;13.692;2024-01-11T13:16:14;40.90;;;22.27;;
3757;SDS011;1894;51.038;13.692;2024-01-11T13:18:41;44.67;;;23.33;;
3757;SDS011;1894;51.038;13.692;2024-01-11T13:21:09;37.40;;;21.23;;
3757;SDS011;1894;51.038;13.692;2024-01-11T13:23:36;40.77;;;23.93;;
3757;SDS011;1894;51.038;13.692;2024-01-11T13:26:05;42.30;;;22.07;;
3757;SDS011;1894;51.038;13.692;2024-01-11T13:28:33;44.47;;;25.57;;
3757;SDS011;1894;51.038;13.692;2024-01-11T13:31:01;48.27;;;24.83;;
3757;SDS011;1894;51.038;13.692;2024-01-11T13:33:29;45.77;;;24.73;;
3757;SDS011;1894;51.038;13.692;2024-01-11T13:35:56;40.13;;;23.93;;
3757;SDS011;1894;51.038;13.692;2024-01-11T13:38:24;43.23;;;24.10;;
3757;SDS011;1894;51.038;13.692;2024-01-11T13:40:51;46.47;;;25.83;;
3757;SDS011;1894;51.038;13.692;2024-01-11T13:43:19;41.70;;;23.17;;
3757;SDS011;1894;51.038;13.692;2024-01-11T13:45:46;46.13;;;24.63;;
3757;SDS011;1894;51.038;13.692;2024-01-11T13:48:15;44.80;;;24.37;;
3757;SDS011;1894;51.038;13.692;2024-01-11T13:50:43;43.37;;;24.33;;
3757;SDS011;1894;51.038;13.692;2024-01-11T13:53:10;40.10;;;23.30;;
3757;SDS011;1894;51.038;13.692;2024-01-11T13:55:37;43.53;;;22.90;;
3757;SDS011;1894;51.038;13.692;2024-01-11T13:58:06;40.00;;;22.30;;
3757;SDS011;1894;51.038;13.692;2024-01-11T14:00:34;36.80;;;20.00;;
3757;SDS011;1894;51.038;13.692;2024-01-11T14:03:01;38.40;;;23.87;;
3757;SDS011;1894;51.038;13.692;2024-01-11T14:05:32;42.93;;;22.70;;
3757;SDS011;1894;51.038;13.692;2024-01-11T14:08:01;44.80;;;23.47;;
3757;SDS011;1894;51.038;13.692;2024-01-11T14:10:32;41.23;;;22.50;;
3757;SDS011;1894;51.038;13.692;2024-01-11T14:13:00;42.27;;;23.13;;
3757;SDS011;1894;51.038;13.692;2024-01-11T14:15:29;46.07;;;21.83;;
3757;SDS011;1894;51.038;13.692;2024-01-11T14:17:59;44.07;;;24.53;;
3757;SDS011;1894;51.038;13.692;2024-01-11T14:20:26;45.57;;;22.50;;
3757;SDS011;1894;51.038;13.692;2024-01-11T14:22:54;43.70;;;23.07;;
3757;SDS011;1894;51.038;13.692;2024-01-11T14:25:23;38.03;;;21.60;;
3757;SDS011;1894;51.038;13.692;2024-01-11T14:27:55;42.50;;;24.53;;
3757;SDS011;1894;51.038;13.692;2024-01-11T14:30:23;41.97;;;22.67;;
3757;SDS011;1894;51.038;13.692;2024-01-11T14:32:50;47.90;;;24.13;;
3757;SDS011;1894;51.038;13.692;2024-01-11T14:35:17;41.23;;;22.67;;
3757;SDS011;1894;51.038;13.692;2024-01-11T14:37:45;45.53;;;22.40;;
3757;SDS011;1894;51.038;13.692;2024-01-11T14:40:13;45.97;;;22.83;;
3757;SDS011;1894;51.038;13.692;2024-01-11T14:42:40;45.80;;;23.30;;
3757;SDS011;1894;51.038;13.692;2024-01-11T14:45:08;42.37;;;23.20;;
3757;SDS011;1894;51.038;13.692;2024-01-11T14:47:35;43.37;;;22.97;;
3757;SDS011;1894;51.038;13.692;2024-01-11T14:50:04;43.70;;;24.03;;